Tonder, Denmark
Current Conditions -  °F | °C
As of 3:50 PM on Monday 24 Nov 2014 (Local Time) from EDXW Reporting Station
Rain Showers Rain Showers  
Wind Chill: 50°   Ceiling: Unl
Heat Index: 50°   Visibility: 6mi
Dew Point: 43°   Wind: 20mph
Humidity: 76%   Direction: 270°W
Pressure: 30.09"   Gusts: NA
Location:  54.93°N, 8.87°E
Report Text: EDXW 241450Z 27017KT 9999 VCSH FEW035 10/06 Q1019 RMK ATIS MIK
Loading
Personal Weather Stations






























Interactive Weather Map New forecast layout! Learn more

10-Day Weather Forecast

Advertisements
Track Severe Weather on mobile